sensor_id;sensor_type;location;lat;lon;timestamp;pressure;altitude;pressure_sealevel;temperature;humidity
29535;BME280;72082;52.650;8.116;2024-01-16T00:00:46;100183.91;;;0.50;100.00
29535;BME280;72082;52.650;8.116;2024-01-16T00:03:11;100193.06;;;0.46;100.00
29535;BME280;72082;52.650;8.116;2024-01-16T00:05:36;100192.91;;;0.42;100.00
29535;BME280;72082;52.650;8.116;2024-01-16T00:08:01;100197.06;;;0.40;100.00
29535;BME280;72082;52.650;8.116;2024-01-16T00:10:27;100212.19;;;0.40;100.00
29535;BME280;72082;52.650;8.116;2024-01-16T00:12:52;100213.13;;;0.43;100.00
29535;BME280;72082;52.650;8.116;2024-01-16T00:15:17;100219.03;;;0.44;100.00
29535;BME280;72082;52.650;8.116;2024-01-16T00:17:42;100218.19;;;0.43;100.00
29535;BME280;72082;52.650;8.116;2024-01-16T00:20:08;100209.84;;;0.46;100.00
29535;BME280;72082;52.650;8.116;2024-01-16T00:22:33;100232.63;;;0.49;100.00
29535;BME280;72082;52.650;8.116;2024-01-16T00:24:58;100238.59;;;0.52;100.00
29535;BME280;72082;52.650;8.116;2024-01-16T00:27:24;100237.75;;;0.52;100.00
29535;BME280;72082;52.650;8.116;2024-01-16T00:29:49;100238.59;;;0.52;100.00
29535;BME280;72082;52.650;8.116;2024-01-16T00:32:14;100248.66;;;0.52;100.00
29535;BME280;72082;52.650;8.116;2024-01-16T00:34:41;100238.47;;;0.48;100.00
29535;BME280;72082;52.650;8.116;2024-01-16T00:37:06;100242.50;;;0.43;100.00
29535;BME280;72082;52.650;8.116;2024-01-16T00:39:32;100245.69;;;0.36;100.00
29535;BME280;72082;52.650;8.116;2024-01-16T00:41:57;100244.59;;;0.28;100.00
29535;BME280;72082;52.650;8.116;2024-01-16T00:44:22;100245.28;;;0.24;100.00
29535;BME280;72082;52.650;8.116;2024-01-16T00:46:48;100252.72;;;0.19;100.00
29535;BME280;72082;52.650;8.116;2024-01-16T00:49:14;100260.94;;;0.14;100.00
29535;BME280;72082;52.650;8.116;2024-01-16T00:51:39;100265.88;;;0.11;100.00
29535;BME280;72082;52.650;8.116;2024-01-16T00:54:04;100273.44;;;0.11;100.00
29535;BME280;72082;52.650;8.116;2024-01-16T00:56:29;100275.91;;;0.09;100.00
29535;BME280;72082;52.650;8.116;2024-01-16T00:58:54;100285.19;;;0.10;100.00
29535;BME280;72082;52.650;8.116;2024-01-16T01:01:20;100289.47;;;0.13;100.00
29535;BME280;72082;52.650;8.116;2024-01-16T01:03:45;100304.63;;;0.14;100.00
29535;BME280;72082;52.650;8.116;2024-01-16T01:06:10;100313.94;;;0.17;100.00
29535;BME280;72082;52.650;8.116;2024-01-16T01:08:36;100308.19;;;0.21;100.00
29535;BME280;72082;52.650;8.116;2024-01-16T01:11:01;100321.72;;;0.24;100.00
29535;BME280;72082;52.650;8.116;2024-01-16T01:13:26;100310.03;;;0.26;100.00
29535;BME280;72082;52.650;8.116;2024-01-16T01:15:51;100300.88;;;0.28;100.00
29535;BME280;72082;52.650;8.116;2024-01-16T01:18:17;100314.28;;;0.29;100.00
29535;BME280;72082;52.650;8.116;2024-01-16T01:20:42;100313.47;;;0.28;100.00
29535;BME280;72082;52.650;8.116;2024-01-16T01:23:07;100309.19;;;0.26;100.00
29535;BME280;72082;52.650;8.116;2024-01-16T01:25:32;100299.91;;;0.25;100.00
29535;BME280;72082;52.650;8.116;2024-01-16T01:27:58;100304.91;;;0.23;100.00
29535;BME280;72082;52.650;8.116;2024-01-16T01:30:23;100293.88;;;0.20;100.00
29535;BME280;72082;52.650;8.116;2024-01-16T01:32:48;100308.09;;;0.18;100.00
29535;BME280;72082;52.650;8.116;2024-01-16T01:35:13;100313.91;;;0.15;100.00
29535;BME280;72082;52.650;8.116;2024-01-16T01:37:38;100318.88;;;0.14;100.00
29535;BME280;72082;52.650;8.116;2024-01-16T01:40:04;100310.44;;;0.13;100.00
29535;BME280;72082;52.650;8.116;2024-01-16T01:42:29;100308.78;;;0.14;100.00
29535;BME280;72082;52.650;8.116;2024-01-16T01:44:54;100315.56;;;0.15;100.00
29535;BME280;72082;52.650;8.116;2024-01-16T01:47:20;100318.81;;;0.12;100.00
29535;BME280;72082;52.650;8.116;2024-01-16T01:49:45;100316.09;;;0.06;100.00
29535;BME280;72082;52.650;8.116;2024-01-16T01:52:11;100311.59;;;-0.04;100.00
29535;BME280;72082;52.650;8.116;2024-01-16T01:54:37;100310.50;;;-0.12;100.00
29535;BME280;72082;52.650;8.116;2024-01-16T01:57:03;100316.16;;;-0.18;100.00
29535;BME280;72082;52.650;8.116;2024-01-16T01:59:31;100321.84;;;-0.23;100.00
29535;BME280;72082;52.650;8.116;2024-01-16T02:01:57;100329.38;;;-0.25;100.00
29535;BME280;72082;52.650;8.116;2024-01-16T02:04:24;100343.50;;;-0.28;100.00
29535;BME280;72082;52.650;8.116;2024-01-16T02:06:49;100338.28;;;-0.34;100.00
29535;BME280;72082;52.650;8.116;2024-01-16T02:09:15;100336.44;;;-0.38;100.00
29535;BME280;72082;52.650;8.116;2024-01-16T02:11:40;100338.84;;;-0.41;100.00
29535;BME280;72082;52.650;8.116;2024-01-16T02:14:06;100338.72;;;-0.46;100.00
29535;BME280;72082;52.650;8.116;2024-01-16T02:16:36;100345.47;;;-0.45;100.00
29535;BME280;72082;52.650;8.116;2024-01-16T02:19:01;100341.97;;;-0.48;100.00
29535;BME280;72082;52.650;8.116;2024-01-16T02:21:28;100347.72;;;-0.52;100.00
29535;BME280;72082;52.650;8.116;2024-01-16T02:23:56;100344.28;;;-0.54;100.00
29535;BME280;72082;52.650;8.116;2024-01-16T02:26:21;100347.53;;;-0.57;100.00
29535;BME280;72082;52.650;8.116;2024-01-16T02:28:46;100350.88;;;-0.58;100.00
29535;BME280;72082;52.650;8.116;2024-01-16T02:31:12;100346.66;;;-0.59;100.00
29535;BME280;72082;52.650;8.116;2024-01-16T02:33:37;100353.28;;;-0.61;100.00
29535;BME280;72082;52.650;8.116;2024-01-16T02:36:02;100353.19;;;-0.64;100.00
29535;BME280;72082;52.650;8.116;2024-01-16T02:38:28;100353.13;;;-0.66;100.00
29535;BME280;72082;52.650;8.116;2024-01-16T02:40:53;100354.69;;;-0.69;100.00
29535;BME280;72082;52.650;8.116;2024-01-16T02:43:18;100358.84;;;-0.70;100.00
29535;BME280;72082;52.650;8.116;2024-01-16T02:45:43;100368.00;;;-0.72;100.00
29535;BME280;72082;52.650;8.116;2024-01-16T02:48:09;100357.06;;;-0.72;100.00
29535;BME280;72082;52.650;8.116;2024-01-16T02:50:34;100359.56;;;-0.74;100.00
29535;BME280;72082;52.650;8.116;2024-01-16T02:52:59;100357.81;;;-0.75;100.00
29535;BME280;72082;52.650;8.116;2024-01-16T02:55:24;100367.13;;;-0.72;100.00
29535;BME280;72082;52.650;8.116;2024-01-16T02:57:50;100369.75;;;-0.69;100.00
29535;BME280;72082;52.650;8.116;2024-01-16T03:00:15;100382.50;;;-0.65;100.00
29535;BME280;72082;52.650;8.116;2024-01-16T03:02:41;100377.69;;;-0.58;100.00
29535;BME280;72082;52.650;8.116;2024-01-16T03:05:06;100379.56;;;-0.53;100.00
29535;BME280;72082;52.650;8.116;2024-01-16T03:07:32;100381.25;;;-0.52;100.00
29535;BME280;72082;52.650;8.116;2024-01-16T03:09:57;100388.94;;;-0.49;100.00
29535;BME280;72082;52.650;8.116;2024-01-16T03:12:22;100384.00;;;-0.46;100.00
29535;BME280;72082;52.650;8.116;2024-01-16T03:14:48;100379.13;;;-0.41;100.00
29535;BME280;72082;52.650;8.116;2024-01-16T03:17:13;100381.81;;;-0.37;100.00
29535;BME280;72082;52.650;8.116;2024-01-16T03:19:38;100377.69;;;-0.35;100.00
29535;BME280;72082;52.650;8.116;2024-01-16T03:22:03;100378.59;;;-0.33;100.00
29535;BME280;72082;52.650;8.116;2024-01-16T03:24:29;100366.00;;;-0.33;100.00
29535;BME280;72082;52.650;8.116;2024-01-16T03:26:54;100365.91;;;-0.36;100.00
29535;BME280;72082;52.650;8.116;2024-01-16T03:29:19;100369.13;;;-0.40;100.00
29535;BME280;72082;52.650;8.116;2024-01-16T03:31:44;100369.88;;;-0.42;100.00
29535;BME280;72082;52.650;8.116;2024-01-16T03:34:10;100366.38;;;-0.46;100.00
29535;BME280;72082;52.650;8.116;2024-01-16T03:36:35;100366.28;;;-0.49;100.00
29535;BME280;72082;52.650;8.116;2024-01-16T03:39:00;100373.03;;;-0.48;100.00
29535;BME280;72082;52.650;8.116;2024-01-16T03:41:25;100367.16;;;-0.48;100.00
29535;BME280;72082;52.650;8.116;2024-01-16T03:43:50;100371.31;;;-0.49;100.00
29535;BME280;72082;52.650;8.116;2024-01-16T03:46:16;100372.94;;;-0.51;100.00
29535;BME280;72082;52.650;8.116;2024-01-16T03:48:41;100371.19;;;-0.52;100.00
29535;BME280;72082;52.650;8.116;2024-01-16T03:51:06;100370.28;;;-0.54;100.00
29535;BME280;72082;52.650;8.116;2024-01-16T03:53:31;100381.97;;;-0.56;100.00
29535;BME280;72082;52.650;8.116;2024-01-16T03:55:56;100384.44;;;-0.57;100.00
29535;BME280;72082;52.650;8.116;2024-01-16T03:58:22;100382.75;;;-0.57;100.00
29535;BME280;72082;52.650;8.116;2024-01-16T04:00:47;100382.75;;;-0.57;100.00
29535;BME280;72082;52.650;8.116;2024-01-16T04:03:12;100382.84;;;-0.55;100.00
29535;BME280;72082;52.650;8.116;2024-01-16T04:05:38;100372.69;;;-0.57;100.00
29535;BME280;72082;52.650;8.116;2024-01-16T04:08:03;100375.19;;;-0.58;100.00
29535;BME280;72082;52.650;8.116;2024-01-16T04:10:28;100381.88;;;-0.59;100.00
29535;BME280;72082;52.650;8.116;2024-01-16T04:12:53;100380.22;;;-0.58;100.00
29535;BME280;72082;52.650;8.116;2024-01-16T04:15:19;100374.31;;;-0.59;100.00
29535;BME280;72082;52.650;8.116;2024-01-16T04:17:44;100372.69;;;-0.57;100.00
29535;BME280;72082;52.650;8.116;2024-01-16T04:20:10;100373.63;;;-0.55;100.00
29535;BME280;72082;52.650;8.116;2024-01-16T04:22:35;100377.72;;;-0.57;100.00
29535;BME280;72082;52.650;8.116;2024-01-16T04:25:01;100367.78;;;-0.54;100.00
29535;BME280;72082;52.650;8.116;2024-01-16T04:27:26;100374.47;;;-0.54;100.00
29535;BME280;72082;52.650;8.116;2024-01-16T04:29:51;100366.00;;;-0.56;100.00
29535;BME280;72082;52.650;8.116;2024-01-16T04:32:17;100365.13;;;-0.58;100.00
29535;BME280;72082;52.650;8.116;2024-01-16T04:34:42;100364.13;;;-0.62;100.00
29535;BME280;72082;52.650;8.116;2024-01-16T04:37:07;100362.38;;;-0.65;100.00
29535;BME280;72082;52.650;8.116;2024-01-16T04:39:32;100357.31;;;-0.66;100.00
29535;BME280;72082;52.650;8.116;2024-01-16T04:41:58;100370.56;;;-0.70;100.00
29535;BME280;72082;52.650;8.116;2024-01-16T04:44:23;100364.69;;;-0.71;100.00
29535;BME280;72082;52.650;8.116;2024-01-16T04:46:48;100373.94;;;-0.70;100.00
29535;BME280;72082;52.650;8.116;2024-01-16T04:49:13;100369.75;;;-0.69;100.00
29535;BME280;72082;52.650;8.116;2024-01-16T04:51:38;100370.50;;;-0.72;100.00
29535;BME280;72082;52.650;8.116;2024-01-16T04:54:04;100376.53;;;-0.68;100.00
29535;BME280;72082;52.650;8.116;2024-01-16T04:56:29;100379.19;;;-0.64;100.00
29535;BME280;72082;52.650;8.116;2024-01-16T04:58:54;100369.34;;;-0.57;100.00
29535;BME280;72082;52.650;8.116;2024-01-16T05:01:19;100368.50;;;-0.58;100.00
29535;BME280;72082;52.650;8.116;2024-01-16T05:03:45;100357.47;;;-0.62;100.00
29535;BME280;72082;52.650;8.116;2024-01-16T05:06:14;100364.13;;;-0.62;100.00
29535;BME280;72082;52.650;8.116;2024-01-16T05:08:39;100365.88;;;-0.61;100.00
29535;BME280;72082;52.650;8.116;2024-01-16T05:11:04;100367.63;;;-0.58;100.00
29535;BME280;72082;52.650;8.116;2024-01-16T05:13:29;100364.38;;;-0.56;100.00
29535;BME280;72082;52.650;8.116;2024-01-16T05:15:55;100367.00;;;-0.53;100.00
29535;BME280;72082;52.650;8.116;2024-01-16T05:18:20;100369.50;;;-0.53;100.00
29535;BME280;72082;52.650;8.116;2024-01-16T05:20:45;100367.00;;;-0.53;100.00
29535;BME280;72082;52.650;8.116;2024-01-16T05:23:10;100356.09;;;-0.52;100.00
29535;BME280;72082;52.650;8.116;2024-01-16T05:25:35;100358.63;;;-0.52;100.00
29535;BME280;72082;52.650;8.116;2024-01-16T05:28:01;100354.44;;;-0.51;100.00
29535;BME280;72082;52.650;8.116;2024-01-16T05:30:26;100349.41;;;-0.51;100.00
29535;BME280;72082;52.650;8.116;2024-01-16T05:32:51;100360.34;;;-0.51;100.00
29535;BME280;72082;52.650;8.116;2024-01-16T05:35:16;100362.06;;;-0.50;100.00
29535;BME280;72082;52.650;8.116;2024-01-16T05:37:41;100356.22;;;-0.49;100.00
29535;BME280;72082;52.650;8.116;2024-01-16T05:40:07;100343.59;;;-0.50;100.00
29535;BME280;72082;52.650;8.116;2024-01-16T05:42:32;100347.72;;;-0.52;100.00
29535;BME280;72082;52.650;8.116;2024-01-16T05:44:58;100348.56;;;-0.52;100.00
29535;BME280;72082;52.650;8.116;2024-01-16T05:47:23;100355.28;;;-0.52;100.00
29535;BME280;72082;52.650;8.116;2024-01-16T05:49:48;100355.19;;;-0.54;100.00
29535;BME280;72082;52.650;8.116;2024-01-16T05:52:13;100355.28;;;-0.52;100.00
29535;BME280;72082;52.650;8.116;2024-01-16T05:54:39;100344.34;;;-0.53;100.00
29535;BME280;72082;52.650;8.116;2024-01-16T05:57:04;100351.03;;;-0.53;100.00
29535;BME280;72082;52.650;8.116;2024-01-16T05:59:29;100353.56;;;-0.53;100.00
29535;BME280;72082;52.650;8.116;2024-01-16T06:01:54;100353.59;;;-0.52;100.00
29535;BME280;72082;52.650;8.116;2024-01-16T06:04:19;100355.28;;;-0.52;100.00
29535;BME280;72082;52.650;8.116;2024-01-16T06:06:44;100351.91;;;-0.53;100.00
29535;BME280;72082;52.650;8.116;2024-01-16T06:09:10;100355.19;;;-0.54;100.00
29535;BME280;72082;52.650;8.116;2024-01-16T06:11:35;100351.78;;;-0.56;100.00
29535;BME280;72082;52.650;8.116;2024-01-16T06:14:00;100366.88;;;-0.56;100.00
29535;BME280;72082;52.650;8.116;2024-01-16T06:16:26;100358.53;;;-0.55;100.00
29535;BME280;72082;52.650;8.116;2024-01-16T06:18:51;100349.38;;;-0.53;100.00
29535;BME280;72082;52.650;8.116;2024-01-16T06:21:17;100353.50;;;-0.55;100.00
29535;BME280;72082;52.650;8.116;2024-01-16T06:23:42;100344.25;;;-0.56;100.00
29535;BME280;72082;52.650;8.116;2024-01-16T06:26:08;100340.09;;;-0.54;100.00
29535;BME280;72082;52.650;8.116;2024-01-16T06:28:33;100343.50;;;-0.53;100.00
29535;BME280;72082;52.650;8.116;2024-01-16T06:30:58;100343.50;;;-0.53;100.00
29535;BME280;72082;52.650;8.116;2024-01-16T06:33:23;100351.03;;;-0.53;100.00
29535;BME280;72082;52.650;8.116;2024-01-16T06:35:49;100346.78;;;-0.54;100.00
29535;BME280;72082;52.650;8.116;2024-01-16T06:38:14;100343.50;;;-0.53;100.00
29535;BME280;72082;52.650;8.116;2024-01-16T06:40:39;100341.75;;;-0.54;100.00
29535;BME280;72082;52.650;8.116;2024-01-16T06:43:04;100347.53;;;-0.57;100.00
29535;BME280;72082;52.650;8.116;2024-01-16T06:45:31;100351.69;;;-0.59;100.00
29535;BME280;72082;52.650;8.116;2024-01-16T06:47:56;100351.56;;;-0.62;100.00
29535;BME280;72082;52.650;8.116;2024-01-16T06:50:22;100348.94;;;-0.65;100.00
29535;BME280;72082;52.650;8.116;2024-01-16T06:52:47;100355.66;;;-0.66;100.00
29535;BME280;72082;52.650;8.116;2024-01-16T06:55:12;100348.94;;;-0.65;100.00
29535;BME280;72082;52.650;8.116;2024-01-16T06:57:37;100355.66;;;-0.66;100.00
29535;BME280;72082;52.650;8.116;2024-01-16T07:00:03;100357.31;;;-0.66;100.00
29535;BME280;72082;52.650;8.116;2024-01-16T07:02:28;100358.06;;;-0.69;100.00
29535;BME280;72082;52.650;8.116;2024-01-16T07:04:53;100370.50;;;-0.72;100.00
29535;BME280;72082;52.650;8.116;2024-01-16T07:07:18;100368.00;;;-0.72;100.00
29535;BME280;72082;52.650;8.116;2024-01-16T07:09:45;100365.44;;;-0.73;100.00
29535;BME280;72082;52.650;8.116;2024-01-16T07:12:11;100361.19;;;-0.74;100.00
29535;BME280;72082;52.650;8.116;2024-01-16T07:14:36;100371.25;;;-0.74;100.00
29535;BME280;72082;52.650;8.116;2024-01-16T07:17:01;100373.75;;;-0.76;100.00
29535;BME280;72082;52.650;8.116;2024-01-16T07:19:26;100377.91;;;-0.76;100.00
29535;BME280;72082;52.650;8.116;2024-01-16T07:21:51;100376.25;;;-0.76;100.00
29535;BME280;72082;52.650;8.116;2024-01-16T07:24:17;100377.09;;;-0.75;100.00
29535;BME280;72082;52.650;8.116;2024-01-16T07:26:42;100384.59;;;-0.77;100.00
29535;BME280;72082;52.650;8.116;2024-01-16T07:29:07;100379.56;;;-0.77;100.00
29535;BME280;72082;52.650;8.116;2024-01-16T07:31:32;100392.16;;;-0.75;100.00
29535;BME280;72082;52.650;8.116;2024-01-16T07:33:57;100398.13;;;-0.73;100.00
29535;BME280;72082;52.650;8.116;2024-01-16T07:36:23;100388.13;;;-0.72;100.00
29535;BME280;72082;52.650;8.116;2024-01-16T07:38:48;100392.38;;;-0.71;100.00
29535;BME280;72082;52.650;8.116;2024-01-16T07:41:13;100387.34;;;-0.71;100.00
29535;BME280;72082;52.650;8.116;2024-01-16T07:43:38;100389.03;;;-0.70;100.00
29535;BME280;72082;52.650;8.116;2024-01-16T07:46:04;100393.38;;;-0.66;100.00
29535;BME280;72082;52.650;8.116;2024-01-16T07:48:29;100391.78;;;-0.64;100.00
29535;BME280;72082;52.650;8.116;2024-01-16T07:50:54;100400.22;;;-0.62;100.00
29535;BME280;72082;52.650;8.116;2024-01-16T07:53:19;100395.25;;;-0.60;100.00
29535;BME280;72082;52.650;8.116;2024-01-16T07:55:45;100401.19;;;-0.58;100.00
29535;BME280;72082;52.650;8.116;2024-01-16T07:58:11;100398.72;;;-0.56;100.00
29535;BME280;72082;52.650;8.116;2024-01-16T08:00:37;100400.44;;;-0.55;100.00
29535;BME280;72082;52.650;8.116;2024-01-16T08:03:02;100396.31;;;-0.53;100.00
29535;BME280;72082;52.650;8.116;2024-01-16T08:05:27;100398.88;;;-0.52;100.00
29535;BME280;72082;52.650;8.116;2024-01-16T08:07:53;100409.81;;;-0.51;100.00
29535;BME280;72082;52.650;8.116;2024-01-16T08:10:19;100414.03;;;-0.50;100.00
29535;BME280;72082;52.650;8.116;2024-01-16T08:12:44;100407.44;;;-0.47;100.00
29535;BME280;72082;52.650;8.116;2024-01-16T08:15:09;100404.13;;;-0.46;100.00
29535;BME280;72082;52.650;8.116;2024-01-16T08:17:35;100413.44;;;-0.43;100.00
29535;BME280;72082;52.650;8.116;2024-01-16T08:20:00;100409.28;;;-0.43;100.00
29535;BME280;72082;52.650;8.116;2024-01-16T08:22:25;100411.09;;;-0.39;100.00
29535;BME280;72082;52.650;8.116;2024-01-16T08:24:50;100419.59;;;-0.35;100.00
29535;BME280;72082;52.650;8.116;2024-01-16T08:27:15;100418.06;;;-0.32;100.00
29535;BME280;72082;52.650;8.116;2024-01-16T08:29:41;100416.56;;;-0.27;100.00
29535;BME280;72082;52.650;8.116;2024-01-16T08:32:06;100418.38;;;-0.23;100.00
29535;BME280;72082;52.650;8.116;2024-01-16T08:34:31;100427.78;;;-0.17;100.00
29535;BME280;72082;52.650;8.116;2024-01-16T08:36:56;100411.16;;;-0.14;100.00
29535;BME280;72082;52.650;8.116;2024-01-16T08:39:22;100411.28;;;-0.09;100.00
29535;BME280;72082;52.650;8.116;2024-01-16T08:41:47;100410.53;;;-0.07;100.00
29535;BME280;72082;52.650;8.116;2024-01-16T08:44:12;100410.59;;;-0.05;100.00
29535;BME280;72082;52.650;8.116;2024-01-16T08:46:39;100403.03;;;-0.05;100.00
29535;BME280;72082;52.650;8.116;2024-01-16T08:49:04;100406.41;;;-0.05;100.00
29535;BME280;72082;52.650;8.116;2024-01-16T08:51:29;100401.38;;;-0.05;100.00
29535;BME280;72082;52.650;8.116;2024-01-16T08:53:54;100408.03;;;-0.07;100.00
29535;BME280;72082;52.650;8.116;2024-01-16T08:56:20;100401.22;;;-0.09;100.00
29535;BME280;72082;52.650;8.116;2024-01-16T08:58:45;100405.41;;;-0.10;100.00
29535;BME280;72082;52.650;8.116;2024-01-16T09:01:10;100407.00;;;-0.12;100.00
29535;BME280;72082;52.650;8.116;2024-01-16T09:03:35;100417.09;;;-0.12;100.00
29535;BME280;72082;52.650;8.116;2024-01-16T09:06:01;100409.41;;;-0.15;100.00
29535;BME280;72082;52.650;8.116;2024-01-16T09:08:27;100409.53;;;-0.12;100.00
29535;BME280;72082;52.650;8.116;2024-01-16T09:10:53;100422.34;;;-0.06;100.00
29535;BME280;72082;52.650;8.116;2024-01-16T09:13:18;100416.69;;;0.02;100.00
29535;BME280;72082;52.650;8.116;2024-01-16T09:15:44;100421.19;;;0.10;100.00
29535;BME280;72082;52.650;8.116;2024-01-16T09:18:09;100415.53;;;0.17;100.00
29535;BME280;72082;52.650;8.116;2024-01-16T09:20:34;100416.56;;;0.24;100.00
29535;BME280;72082;52.650;8.116;2024-01-16T09:22:59;100414.28;;;0.30;100.00
29535;BME280;72082;52.650;8.116;2024-01-16T09:25:25;100401.06;;;0.37;100.00
29535;BME280;72082;52.650;8.116;2024-01-16T09:27:50;100410.53;;;0.44;100.00
29535;BME280;72082;52.650;8.116;2024-01-16T09:30:16;100406.53;;;0.50;100.00
29535;BME280;72082;52.650;8.116;2024-01-16T09:32:41;100407.53;;;0.55;100.00
29535;BME280;72082;52.650;8.116;2024-01-16T09:35:06;100406.97;;;0.64;100.00
29535;BME280;72082;52.650;8.116;2024-01-16T09:37:32;100404.69;;;0.72;100.00
29535;BME280;72082;52.650;8.116;2024-01-16T09:39:57;100385.59;;;0.80;100.00
29535;BME280;72082;52.650;8.116;2024-01-16T09:42:23;100406.91;;;0.89;100.00
29535;BME280;72082;52.650;8.116;2024-01-16T09:44:48;100400.38;;;0.96;100.00
29535;BME280;72082;52.650;8.116;2024-01-16T09:47:15;100395.50;;;1.02;100.00
29535;BME280;72082;52.650;8.116;2024-01-16T09:49:42;100395.75;;;1.09;100.00
29535;BME280;72082;52.650;8.116;2024-01-16T09:52:08;100399.25;;;1.14;100.00
29535;BME280;72082;52.650;8.116;2024-01-16T09:54:33;100400.06;;;1.13;100.00
29535;BME280;72082;52.650;8.116;2024-01-16T09:56:58;100405.00;;;1.10;100.00
29535;BME280;72082;52.650;8.116;2024-01-16T09:59:24;100405.91;;;1.12;100.00
29535;BME280;72082;52.650;8.116;2024-01-16T10:01:51;100409.34;;;1.14;100.00
29535;BME280;72082;52.650;8.116;2024-01-16T10:04:19;100416.84;;;1.13;100.00
29535;BME280;72082;52.650;8.116;2024-01-16T10:06:45;100411.03;;;1.15;100.00
29535;BME280;72082;52.650;8.116;2024-01-16T10:09:11;100409.38;;;1.16;100.00
29535;BME280;72082;52.650;8.116;2024-01-16T10:11:36;100413.63;;;1.17;100.00
29535;BME280;72082;52.650;8.116;2024-01-16T10:14:02;100411.22;;;1.21;100.00
29535;BME280;72082;52.650;8.116;2024-01-16T10:17:04;100412.09;;;1.22;100.00
29535;BME280;72082;52.650;8.116;2024-01-16T10:19:29;100415.41;;;1.21;100.00
29535;BME280;72082;52.650;8.116;2024-01-16T10:22:07;100419.66;;;1.22;100.00
29535;BME280;72082;52.650;8.116;2024-01-16T10:24:32;100411.31;;;1.24;100.00
29535;BME280;72082;52.650;8.116;2024-01-16T10:26:58;100418.03;;;1.24;100.00
29535;BME280;72082;52.650;8.116;2024-01-16T10:29:23;100420.47;;;1.21;100.00
29535;BME280;72082;52.650;8.116;2024-01-16T10:31:49;100415.38;;;1.19;100.00
29535;BME280;72082;52.650;8.116;2024-01-16T10:34:22;100415.41;;;1.21;100.00
29535;BME280;72082;52.650;8.116;2024-01-16T10:36:51;100418.00;;;1.22;100.00
29535;BME280;72082;52.650;8.116;2024-01-16T10:39:17;100414.75;;;1.27;100.00
29535;BME280;72082;52.650;8.116;2024-01-16T10:41:53;100421.41;;;1.24;100.00
29535;BME280;72082;52.650;8.116;2024-01-16T10:44:19;100421.50;;;1.28;100.00
29535;BME280;72082;52.650;8.116;2024-01-16T10:46:44;100411.47;;;1.31;100.00
29535;BME280;72082;52.650;8.116;2024-01-16T10:49:09;100408.25;;;1.35;100.00
29535;BME280;72082;52.650;8.116;2024-01-16T10:51:34;100398.25;;;1.38;100.00
29535;BME280;72082;52.650;8.116;2024-01-16T10:54:03;100403.38;;;1.41;100.00
29535;BME280;72082;52.650;8.116;2024-01-16T10:56:28;100392.44;;;1.42;100.00
29535;BME280;72082;52.650;8.116;2024-01-16T10:59:21;100392.53;;;1.45;100.00
29535;BME280;72082;52.650;8.116;2024-01-16T11:01:51;100395.31;;;1.54;100.00
29535;BME280;72082;52.650;8.116;2024-01-16T11:04:20;100397.13;;;1.59;100.00
29535;BME280;72082;52.650;8.116;2024-01-16T11:06:47;100400.59;;;1.61;100.00
29535;BME280;72082;52.650;8.116;2024-01-16T11:09:13;100388.78;;;1.62;100.00
29535;BME280;72082;52.650;8.116;2024-01-16T11:11:39;100392.94;;;1.60;100.00
29535;BME280;72082;52.650;8.116;2024-01-16T11:14:04;100390.41;;;1.60;100.00
29535;BME280;72082;52.650;8.116;2024-01-16T11:16:31;100393.78;;;1.59;100.00
29535;BME280;72082;52.650;8.116;2024-01-16T11:18:57;100393.63;;;1.54;100.00
29535;BME280;72082;52.650;8.116;2024-01-16T11:21:22;100392.72;;;1.51;100.00
29535;BME280;72082;52.650;8.116;2024-01-16T11:23:48;100391.78;;;1.49;100.00
29535;BME280;72082;52.650;8.116;2024-01-16T11:28:55;100395.16;;;1.48;100.00
29535;BME280;72082;52.650;8.116;2024-01-16T11:31:33;100390.91;;;1.47;100.00
29535;BME280;72082;52.650;8.116;2024-01-16T11:34:00;100390.97;;;1.48;100.00
29535;BME280;72082;52.650;8.116;2024-01-16T11:36:51;100386.84;;;1.52;100.00
29535;BME280;72082;52.650;8.116;2024-01-16T11:39:17;100401.25;;;1.56;100.00
29535;BME280;72082;52.650;8.116;2024-01-16T11:41:56;100397.06;;;1.56;100.00
29535;BME280;72082;52.650;8.116;2024-01-16T11:44:41;100397.88;;;1.55;100.00
29535;BME280;72082;52.650;8.116;2024-01-16T11:47:07;100405.44;;;1.54;100.00
29535;BME280;72082;52.650;8.116;2024-01-16T11:49:32;100392.72;;;1.51;100.00
29535;BME280;72082;52.650;8.116;2024-01-16T11:51:58;100406.22;;;1.53;100.00
29535;BME280;72082;52.650;8.116;2024-01-16T11:54:24;100398.66;;;1.53;100.00
29535;BME280;72082;52.650;8.116;2024-01-16T11:57:18;100398.69;;;1.54;100.00
29535;BME280;72082;52.650;8.116;2024-01-16T12:00:04;100387.78;;;1.55;100.00
29535;BME280;72082;52.650;8.116;2024-01-16T12:02:41;100401.19;;;1.53;100.00
29535;BME280;72082;52.650;8.116;2024-01-16T12:05:11;100396.94;;;1.52;100.00
29535;BME280;72082;52.650;8.116;2024-01-16T12:07:45;100401.97;;;1.52;100.00
29535;BME280;72082;52.650;8.116;2024-01-16T12:10:11;100401.13;;;1.51;100.00
29535;BME280;72082;52.650;8.116;2024-01-16T12:12:36;100405.38;;;1.52;100.00
29535;BME280;72082;52.650;8.116;2024-01-16T12:15:01;100392.75;;;1.52;100.00
29535;BME280;72082;52.650;8.116;2024-01-16T12:17:27;100400.28;;;1.51;100.00
29535;BME280;72082;52.650;8.116;2024-01-16T12:19:52;100395.25;;;1.51;100.00
29535;BME280;72082;52.650;8.116;2024-01-16T12:22:17;100392.66;;;1.49;100.00
29535;BME280;72082;52.650;8.116;2024-01-16T12:24:42;100385.06;;;1.48;100.00
29535;BME280;72082;52.650;8.116;2024-01-16T12:27:08;100375.72;;;1.45;100.00
29535;BME280;72082;52.650;8.116;2024-01-16T12:29:33;100384.97;;;1.45;100.00
29535;BME280;72082;52.650;8.116;2024-01-16T12:32:11;100373.97;;;1.43;100.00
29535;BME280;72082;52.650;8.116;2024-01-16T12:34:47;100372.34;;;1.45;100.00
29535;BME280;72082;52.650;8.116;2024-01-16T12:37:12;100361.44;;;1.46;100.00
29535;BME280;72082;52.650;8.116;2024-01-16T12:39:38;100358.19;;;1.50;100.00
29535;BME280;72082;52.650;8.116;2024-01-16T12:42:03;100354.09;;;1.55;100.00